Hauptseite
METAR-TAF:

METAR-TAF

Flughäfen :

Maiduguri, Nigeria

Breite: 11-51N, Länge: 013-05E, Höhe: 354 m

METAR: fehlend

Zeit: 12:36 (11:36 UTC)

Prognose

Neuester Wetterbericht von vor 6 Stunden und 36 Minuten, um 05:00 UTC
Gültige Prognose vom 09 um 06 UTC bis 10 um 12 UTC
Wind 8 kt aus Südwest
Sichtweite 10 km oder mehr
Aufgelockert bewölkt in der Höhe von 1200 ft
Zeitweise
vom 09 um 11 UTC bis 09 um 17 UTC
Sichtweite: 5000 m
Durchbrochene Bewölkung in der Höhe von 1100 ft
Leicht bewölkt in der Höhe von 1900 ft, Kumulonimbus.
Gewitter, Regen
Übergehend zu
vom 09 um 19 UTC bis 09 um 21 UTC
Leicht bewölkt in der Höhe von 1300 ft

TAF: DNMA 090500Z 0906/1012 23008KT 9999 SCT012 TEMPO 0911/0917 5000 TSRA BKN011 FEW019CB BECMG 0919/0921 NSW FEW013

Wetterbeobachtungen und Prognosen von mehr als 4000 Flughäfen (METAR und TAF Bericht).

Die verfügbaren Stationen werden durch gelbe und rote Markierungen auf der Karte dargestellt.

Führen Sie die Maus auf sie, um den Namen der Station zu sehen.

Darauf klicken, um die Beobachtung von Wetterbeobachtungen und Prognosen zu sehen.

Um die Karte zu ändern : klicken Sie auf den grünen Tasten mit einem schwarzen Kreuz Zum Vergrößern, auf den grünen Button mit einem Gedankenstrich zu verkleinern, oder auf die grünen Pfeile für benachbarte Karten.


METAR-TAF: